sensor_id;sensor_type;location;lat;lon;timestamp;temperature;humidity
61201;DHT22;47065;52.898;6.992;2022-09-09T00:02:24;13.80;99.90
61201;DHT22;47065;52.898;6.992;2022-09-09T00:05:14;13.80;99.90
61201;DHT22;47065;52.898;6.992;2022-09-09T00:07:48;13.80;99.90
61201;DHT22;47065;52.898;6.992;2022-09-09T00:15:27;13.70;99.90
61201;DHT22;47065;52.898;6.992;2022-09-09T00:18:12;13.70;99.90
61201;DHT22;47065;52.898;6.992;2022-09-09T00:20:49;13.70;99.90
61201;DHT22;47065;52.898;6.992;2022-09-09T00:23:30;13.70;99.90
61201;DHT22;47065;52.898;6.992;2022-09-09T00:26:22;13.70;99.90
61201;DHT22;47065;52.898;6.992;2022-09-09T00:31:34;13.60;99.90
61201;DHT22;47065;52.898;6.992;2022-09-09T00:34:21;13.60;99.90
61201;DHT22;47065;52.898;6.992;2022-09-09T00:36:50;13.50;99.90
61201;DHT22;47065;52.898;6.992;2022-09-09T00:39:27;13.60;99.90
61201;DHT22;47065;52.898;6.992;2022-09-09T00:42:16;13.50;99.90
61201;DHT22;47065;52.898;6.992;2022-09-09T00:44:59;13.50;99.90
61201;DHT22;47065;52.898;6.992;2022-09-09T00:53:00;13.50;99.90
61201;DHT22;47065;52.898;6.992;2022-09-09T00:55:45;13.40;99.90
61201;DHT22;47065;52.898;6.992;2022-09-09T00:58:13;13.40;99.90
61201;DHT22;47065;52.898;6.992;2022-09-09T01:00:45;13.40;99.90
61201;DHT22;47065;52.898;6.992;2022-09-09T01:03:33;13.30;99.90
61201;DHT22;47065;52.898;6.992;2022-09-09T01:06:02;13.40;99.90
61201;DHT22;47065;52.898;6.992;2022-09-09T01:08:47;13.30;99.90
61201;DHT22;47065;52.898;6.992;2022-09-09T01:11:26;13.30;99.90
61201;DHT22;47065;52.898;6.992;2022-09-09T01:16:46;13.30;99.90
61201;DHT22;47065;52.898;6.992;2022-09-09T01:19:20;13.20;99.90
61201;DHT22;47065;52.898;6.992;2022-09-09T01:22:03;13.20;99.90
61201;DHT22;47065;52.898;6.992;2022-09-09T01:24:40;13.20;99.90
61201;DHT22;47065;52.898;6.992;2022-09-09T01:27:08;13.30;99.90
61201;DHT22;47065;52.898;6.992;2022-09-09T01:29:36;13.30;99.90
61201;DHT22;47065;52.898;6.992;2022-09-09T01:32:38;13.30;99.90
61201;DHT22;47065;52.898;6.992;2022-09-09T01:35:09;13.40;99.90
61201;DHT22;47065;52.898;6.992;2022-09-09T01:37:36;13.40;99.90
61201;DHT22;47065;52.898;6.992;2022-09-09T01:40:02;13.40;99.90
61201;DHT22;47065;52.898;6.992;2022-09-09T01:42:28;13.40;99.90
61201;DHT22;47065;52.898;6.992;2022-09-09T01:44:53;13.40;99.90
61201;DHT22;47065;52.898;6.992;2022-09-09T01:47:20;13.50;99.90
61201;DHT22;47065;52.898;6.992;2022-09-09T01:49:46;13.50;99.90
61201;DHT22;47065;52.898;6.992;2022-09-09T01:52:11;13.50;99.90
61201;DHT22;47065;52.898;6.992;2022-09-09T01:54:37;13.50;99.90
61201;DHT22;47065;52.898;6.992;2022-09-09T01:57:26;13.60;99.90
61201;DHT22;47065;52.898;6.992;2022-09-09T02:00:11;13.60;99.90
61201;DHT22;47065;52.898;6.992;2022-09-09T02:08:00;13.80;99.90
61201;DHT22;47065;52.898;6.992;2022-09-09T02:10:54;13.80;99.90
61201;DHT22;47065;52.898;6.992;2022-09-09T02:13:22;13.80;99.90
61201;DHT22;47065;52.898;6.992;2022-09-09T02:16:00;13.80;99.90
61201;DHT22;47065;52.898;6.992;2022-09-09T02:18:35;13.80;99.90
61201;DHT22;47065;52.898;6.992;2022-09-09T02:21:05;13.80;99.90
61201;DHT22;47065;52.898;6.992;2022-09-09T02:23:32;13.90;99.90
61201;DHT22;47065;52.898;6.992;2022-09-09T02:26:00;13.90;99.90
61201;DHT22;47065;52.898;6.992;2022-09-09T02:28:30;13.90;99.90
61201;DHT22;47065;52.898;6.992;2022-09-09T02:30:57;13.90;99.90
61201;DHT22;47065;52.898;6.992;2022-09-09T02:33:26;13.90;99.90
61201;DHT22;47065;52.898;6.992;2022-09-09T02:35:53;13.90;99.90
61201;DHT22;47065;52.898;6.992;2022-09-09T02:38:21;13.90;99.90
61201;DHT22;47065;52.898;6.992;2022-09-09T02:40:47;14.00;99.90
61201;DHT22;47065;52.898;6.992;2022-09-09T02:43:14;14.00;99.90
61201;DHT22;47065;52.898;6.992;2022-09-09T02:45:53;14.00;99.90
61201;DHT22;47065;52.898;6.992;2022-09-09T02:48:38;14.00;99.90
61201;DHT22;47065;52.898;6.992;2022-09-09T02:56:32;14.00;99.90
61201;DHT22;47065;52.898;6.992;2022-09-09T02:59:03;14.00;99.90
61201;DHT22;47065;52.898;6.992;2022-09-09T03:01:29;14.00;99.90
61201;DHT22;47065;52.898;6.992;2022-09-09T03:03:55;14.00;99.90
61201;DHT22;47065;52.898;6.992;2022-09-09T03:06:21;14.10;99.90
61201;DHT22;47065;52.898;6.992;2022-09-09T03:08:47;14.10;99.90
61201;DHT22;47065;52.898;6.992;2022-09-09T03:11:16;14.10;99.90
61201;DHT22;47065;52.898;6.992;2022-09-09T03:13:41;14.10;99.90
61201;DHT22;47065;52.898;6.992;2022-09-09T03:16:07;14.10;99.90
61201;DHT22;47065;52.898;6.992;2022-09-09T03:18:32;14.10;99.90
61201;DHT22;47065;52.898;6.992;2022-09-09T03:21:00;14.10;99.90
61201;DHT22;47065;52.898;6.992;2022-09-09T03:23:26;14.20;99.90
61201;DHT22;47065;52.898;6.992;2022-09-09T03:25:52;14.20;99.90
61201;DHT22;47065;52.898;6.992;2022-09-09T03:28:18;14.10;99.90
61201;DHT22;47065;52.898;6.992;2022-09-09T03:30:44;14.20;99.90
61201;DHT22;47065;52.898;6.992;2022-09-09T03:33:10;14.20;99.90
61201;DHT22;47065;52.898;6.992;2022-09-09T03:35:35;14.10;99.90
61201;DHT22;47065;52.898;6.992;2022-09-09T03:38:01;14.20;99.90
61201;DHT22;47065;52.898;6.992;2022-09-09T03:40:27;14.20;99.90
61201;DHT22;47065;52.898;6.992;2022-09-09T03:42:52;14.20;99.90
61201;DHT22;47065;52.898;6.992;2022-09-09T03:45:18;14.20;99.90
61201;DHT22;47065;52.898;6.992;2022-09-09T03:47:44;14.20;99.90
61201;DHT22;47065;52.898;6.992;2022-09-09T03:50:09;14.20;99.90
61201;DHT22;47065;52.898;6.992;2022-09-09T03:52:41;14.20;99.90
61201;DHT22;47065;52.898;6.992;2022-09-09T03:55:08;14.20;99.90
61201;DHT22;47065;52.898;6.992;2022-09-09T03:57:34;14.20;99.90
61201;DHT22;47065;52.898;6.992;2022-09-09T04:00:05;14.20;99.90
61201;DHT22;47065;52.898;6.992;2022-09-09T04:02:31;14.20;99.90
61201;DHT22;47065;52.898;6.992;2022-09-09T04:04:57;14.20;99.90
61201;DHT22;47065;52.898;6.992;2022-09-09T04:07:23;14.10;99.90
61201;DHT22;47065;52.898;6.992;2022-09-09T04:09:48;14.20;99.90
61201;DHT22;47065;52.898;6.992;2022-09-09T04:12:14;14.10;99.90
61201;DHT22;47065;52.898;6.992;2022-09-09T04:14:40;14.10;99.90
61201;DHT22;47065;52.898;6.992;2022-09-09T04:17:06;14.10;99.90
61201;DHT22;47065;52.898;6.992;2022-09-09T04:19:32;14.10;99.90
61201;DHT22;47065;52.898;6.992;2022-09-09T04:21:58;14.00;99.90
61201;DHT22;47065;52.898;6.992;2022-09-09T04:24:24;14.10;99.90
61201;DHT22;47065;52.898;6.992;2022-09-09T04:26:50;14.00;99.90
61201;DHT22;47065;52.898;6.992;2022-09-09T04:29:16;14.00;99.90
61201;DHT22;47065;52.898;6.992;2022-09-09T04:31:41;14.00;99.90
61201;DHT22;47065;52.898;6.992;2022-09-09T04:34:08;14.00;99.90
61201;DHT22;47065;52.898;6.992;2022-09-09T04:36:34;14.00;99.90
61201;DHT22;47065;52.898;6.992;2022-09-09T04:39:00;14.00;99.90
61201;DHT22;47065;52.898;6.992;2022-09-09T04:41:27;14.00;99.90
61201;DHT22;47065;52.898;6.992;2022-09-09T04:43:53;14.10;99.90
61201;DHT22;47065;52.898;6.992;2022-09-09T04:46:20;14.00;99.90
61201;DHT22;47065;52.898;6.992;2022-09-09T04:48:46;14.10;99.90
61201;DHT22;47065;52.898;6.992;2022-09-09T04:51:13;14.00;99.90
61201;DHT22;47065;52.898;6.992;2022-09-09T04:53:39;14.00;99.90
61201;DHT22;47065;52.898;6.992;2022-09-09T04:56:11;14.00;99.90
61201;DHT22;47065;52.898;6.992;2022-09-09T04:58:38;14.00;99.90
61201;DHT22;47065;52.898;6.992;2022-09-09T05:01:08;14.00;99.90
61201;DHT22;47065;52.898;6.992;2022-09-09T05:03:34;14.00;99.90
61201;DHT22;47065;52.898;6.992;2022-09-09T05:06:10;14.00;99.90
61201;DHT22;47065;52.898;6.992;2022-09-09T05:08:40;14.00;99.90
61201;DHT22;47065;52.898;6.992;2022-09-09T05:11:16;14.00;99.90
61201;DHT22;47065;52.898;6.992;2022-09-09T05:13:43;14.00;99.90
61201;DHT22;47065;52.898;6.992;2022-09-09T05:16:09;14.00;99.90
61201;DHT22;47065;52.898;6.992;2022-09-09T05:18:37;14.00;99.90
61201;DHT22;47065;52.898;6.992;2022-09-09T05:21:03;14.00;99.90
61201;DHT22;47065;52.898;6.992;2022-09-09T05:23:28;14.00;99.90
61201;DHT22;47065;52.898;6.992;2022-09-09T05:25:56;14.00;99.90
61201;DHT22;47065;52.898;6.992;2022-09-09T05:28:23;14.00;99.90
61201;DHT22;47065;52.898;6.992;2022-09-09T05:31:04;14.00;99.90
61201;DHT22;47065;52.898;6.992;2022-09-09T05:33:31;14.00;99.90
61201;DHT22;47065;52.898;6.992;2022-09-09T05:36:05;14.00;99.90
61201;DHT22;47065;52.898;6.992;2022-09-09T05:38:32;14.00;99.90
61201;DHT22;47065;52.898;6.992;2022-09-09T05:40:59;14.00;99.90
61201;DHT22;47065;52.898;6.992;2022-09-09T05:43:25;14.00;99.90
61201;DHT22;47065;52.898;6.992;2022-09-09T05:46:02;14.00;99.90
61201;DHT22;47065;52.898;6.992;2022-09-09T05:48:31;14.00;99.90
61201;DHT22;47065;52.898;6.992;2022-09-09T05:50:58;14.00;99.90
61201;DHT22;47065;52.898;6.992;2022-09-09T05:53:24;14.00;99.90
61201;DHT22;47065;52.898;6.992;2022-09-09T05:55:49;14.00;99.90
61201;DHT22;47065;52.898;6.992;2022-09-09T05:58:15;14.00;99.90
61201;DHT22;47065;52.898;6.992;2022-09-09T06:00:43;14.00;99.90
61201;DHT22;47065;52.898;6.992;2022-09-09T06:03:12;14.00;99.90
61201;DHT22;47065;52.898;6.992;2022-09-09T06:05:38;13.90;99.90
61201;DHT22;47065;52.898;6.992;2022-09-09T06:08:03;14.00;99.90
61201;DHT22;47065;52.898;6.992;2022-09-09T06:10:29;13.90;99.90
61201;DHT22;47065;52.898;6.992;2022-09-09T06:12:55;14.00;99.90
61201;DHT22;47065;52.898;6.992;2022-09-09T06:15:21;13.90;99.90
61201;DHT22;47065;52.898;6.992;2022-09-09T06:17:46;14.00;99.90
61201;DHT22;47065;52.898;6.992;2022-09-09T06:20:12;14.00;99.90
61201;DHT22;47065;52.898;6.992;2022-09-09T06:22:41;14.00;99.90
61201;DHT22;47065;52.898;6.992;2022-09-09T06:25:08;14.10;99.90
61201;DHT22;47065;52.898;6.992;2022-09-09T06:27:34;14.10;99.90
61201;DHT22;47065;52.898;6.992;2022-09-09T06:30:00;14.20;99.90
61201;DHT22;47065;52.898;6.992;2022-09-09T06:32:26;14.10;99.90
61201;DHT22;47065;52.898;6.992;2022-09-09T06:34:52;14.20;99.90
61201;DHT22;47065;52.898;6.992;2022-09-09T06:37:18;14.20;99.90
61201;DHT22;47065;52.898;6.992;2022-09-09T06:39:44;14.20;99.90
61201;DHT22;47065;52.898;6.992;2022-09-09T06:42:09;14.30;99.90
61201;DHT22;47065;52.898;6.992;2022-09-09T06:44:35;14.30;99.90
61201;DHT22;47065;52.898;6.992;2022-09-09T06:47:02;14.30;99.90
61201;DHT22;47065;52.898;6.992;2022-09-09T06:49:27;14.40;99.90
61201;DHT22;47065;52.898;6.992;2022-09-09T06:51:53;14.40;99.90
61201;DHT22;47065;52.898;6.992;2022-09-09T06:54:19;14.40;99.90
61201;DHT22;47065;52.898;6.992;2022-09-09T06:56:45;14.40;99.90
61201;DHT22;47065;52.898;6.992;2022-09-09T06:59:11;14.50;99.90
61201;DHT22;47065;52.898;6.992;2022-09-09T07:01:42;14.50;99.90
61201;DHT22;47065;52.898;6.992;2022-09-09T07:04:09;14.50;99.90
61201;DHT22;47065;52.898;6.992;2022-09-09T07:06:41;14.50;99.90
61201;DHT22;47065;52.898;6.992;2022-09-09T07:09:10;14.50;99.90
61201;DHT22;47065;52.898;6.992;2022-09-09T07:11:47;14.50;99.90
61201;DHT22;47065;52.898;6.992;2022-09-09T07:14:14;14.60;99.90
61201;DHT22;47065;52.898;6.992;2022-09-09T07:16:44;14.60;99.90
61201;DHT22;47065;52.898;6.992;2022-09-09T07:19:11;14.60;99.90
61201;DHT22;47065;52.898;6.992;2022-09-09T07:21:38;14.60;99.90
61201;DHT22;47065;52.898;6.992;2022-09-09T07:24:06;14.60;99.90
61201;DHT22;47065;52.898;6.992;2022-09-09T07:26:34;14.60;99.90
61201;DHT22;47065;52.898;6.992;2022-09-09T07:28:59;14.70;99.90
61201;DHT22;47065;52.898;6.992;2022-09-09T07:31:27;14.70;99.90
61201;DHT22;47065;52.898;6.992;2022-09-09T07:33:56;14.80;99.90
61201;DHT22;47065;52.898;6.992;2022-09-09T07:36:23;14.80;99.90
61201;DHT22;47065;52.898;6.992;2022-09-09T07:38:52;14.90;99.90
61201;DHT22;47065;52.898;6.992;2022-09-09T07:41:21;15.00;99.90
61201;DHT22;47065;52.898;6.992;2022-09-09T07:43:49;15.10;99.90
61201;DHT22;47065;52.898;6.992;2022-09-09T07:46:17;15.20;99.90
61201;DHT22;47065;52.898;6.992;2022-09-09T07:48:46;15.50;99.90
61201;DHT22;47065;52.898;6.992;2022-09-09T07:51:14;15.70;99.90
61201;DHT22;47065;52.898;6.992;2022-09-09T07:53:43;15.80;99.90
61201;DHT22;47065;52.898;6.992;2022-09-09T07:56:11;15.90;99.90
61201;DHT22;47065;52.898;6.992;2022-09-09T07:58:38;16.00;99.90
61201;DHT22;47065;52.898;6.992;2022-09-09T08:01:16;16.00;99.90
61201;DHT22;47065;52.898;6.992;2022-09-09T08:03:44;16.10;99.90
61201;DHT22;47065;52.898;6.992;2022-09-09T08:06:10;16.10;99.90
61201;DHT22;47065;52.898;6.992;2022-09-09T08:08:38;16.20;99.90
61201;DHT22;47065;52.898;6.992;2022-09-09T08:13:38;16.30;99.90
61201;DHT22;47065;52.898;6.992;2022-09-09T08:16:06;16.40;99.90
61201;DHT22;47065;52.898;6.992;2022-09-09T08:18:32;16.50;99.90
61201;DHT22;47065;52.898;6.992;2022-09-09T08:21:04;16.60;99.90
61201;DHT22;47065;52.898;6.992;2022-09-09T08:23:29;16.80;99.90
61201;DHT22;47065;52.898;6.992;2022-09-09T08:25:55;16.90;99.90
61201;DHT22;47065;52.898;6.992;2022-09-09T08:28:27;17.10;99.90
61201;DHT22;47065;52.898;6.992;2022-09-09T08:30:53;17.30;99.90
61201;DHT22;47065;52.898;6.992;2022-09-09T08:33:19;17.60;99.90
61201;DHT22;47065;52.898;6.992;2022-09-09T08:35:51;17.90;99.90
61201;DHT22;47065;52.898;6.992;2022-09-09T08:38:18;18.40;99.90
61201;DHT22;47065;52.898;6.992;2022-09-09T08:40:46;19.00;99.90
61201;DHT22;47065;52.898;6.992;2022-09-09T08:43:15;19.90;99.90
61201;DHT22;47065;52.898;6.992;2022-09-09T08:51:36;23.30;99.90
61201;DHT22;47065;52.898;6.992;2022-09-09T08:54:03;23.90;99.90
61201;DHT22;47065;52.898;6.992;2022-09-09T08:56:31;23.80;99.90
61201;DHT22;47065;52.898;6.992;2022-09-09T08:59:00;23.80;99.90
61201;DHT22;47065;52.898;6.992;2022-09-09T09:01:35;23.60;99.90
61201;DHT22;47065;52.898;6.992;2022-09-09T09:04:38;23.30;99.90
61201;DHT22;47065;52.898;6.992;2022-09-09T09:07:18;22.40;99.90
61201;DHT22;47065;52.898;6.992;2022-09-09T09:12:39;21.00;99.90
61201;DHT22;47065;52.898;6.992;2022-09-09T09:15:25;20.40;99.90
61201;DHT22;47065;52.898;6.992;2022-09-09T09:17:52;19.90;99.90
61201;DHT22;47065;52.898;6.992;2022-09-09T09:20:29;19.70;99.90
61201;DHT22;47065;52.898;6.992;2022-09-09T09:23:00;19.50;99.90
61201;DHT22;47065;52.898;6.992;2022-09-09T09:25:35;19.40;99.90
61201;DHT22;47065;52.898;6.992;2022-09-09T09:28:25;19.30;99.90
61201;DHT22;47065;52.898;6.992;2022-09-09T09:33:35;19.20;99.90
61201;DHT22;47065;52.898;6.992;2022-09-09T09:36:06;19.00;99.90
61201;DHT22;47065;52.898;6.992;2022-09-09T09:38:35;19.00;99.90
61201;DHT22;47065;52.898;6.992;2022-09-09T09:41:01;18.90;99.90
61201;DHT22;47065;52.898;6.992;2022-09-09T09:43:30;18.80;99.90
61201;DHT22;47065;52.898;6.992;2022-09-09T09:45:57;18.80;99.90
61201;DHT22;47065;52.898;6.992;2022-09-09T09:48:27;18.80;99.90
61201;DHT22;47065;52.898;6.992;2022-09-09T09:51:04;18.70;99.90
61201;DHT22;47065;52.898;6.992;2022-09-09T09:53:34;18.60;99.90
61201;DHT22;47065;52.898;6.992;2022-09-09T09:56:05;18.50;99.90
61201;DHT22;47065;52.898;6.992;2022-09-09T09:58:52;18.50;99.90
61201;DHT22;47065;52.898;6.992;2022-09-09T10:01:23;18.60;99.90
61201;DHT22;47065;52.898;6.992;2022-09-09T10:03:51;18.70;99.90
61201;DHT22;47065;52.898;6.992;2022-09-09T10:06:29;18.80;99.90
61201;DHT22;47065;52.898;6.992;2022-09-09T10:08:54;19.10;99.90
61201;DHT22;47065;52.898;6.992;2022-09-09T10:19:36;20.40;99.90
61201;DHT22;47065;52.898;6.992;2022-09-09T10:22:25;20.50;99.90
61201;DHT22;47065;52.898;6.992;2022-09-09T10:33:12;20.40;99.90
61201;DHT22;47065;52.898;6.992;2022-09-09T10:35:50;20.30;99.90
61201;DHT22;47065;52.898;6.992;2022-09-09T10:38:42;20.30;99.90
61201;DHT22;47065;52.898;6.992;2022-09-09T10:57:32;20.60;99.90
61201;DHT22;47065;52.898;6.992;2022-09-09T11:00:13;20.90;99.90
61201;DHT22;47065;52.898;6.992;2022-09-09T11:02:41;21.00;99.90
61201;DHT22;47065;52.898;6.992;2022-09-09T11:05:20;21.10;99.90
61201;DHT22;47065;52.898;6.992;2022-09-09T11:08:05;21.20;99.90
61201;DHT22;47065;52.898;6.992;2022-09-09T11:13:53;21.30;99.90
61201;DHT22;47065;52.898;6.992;2022-09-09T11:19:09;21.20;99.90
61201;DHT22;47065;52.898;6.992;2022-09-09T11:21:45;21.20;99.90
61201;DHT22;47065;52.898;6.992;2022-09-09T11:24:26;21.20;99.90
61201;DHT22;47065;52.898;6.992;2022-09-09T11:27:07;21.30;99.90
61201;DHT22;47065;52.898;6.992;2022-09-09T11:30:15;21.40;99.90
61201;DHT22;47065;52.898;6.992;2022-09-09T11:38:26;21.80;99.90
61201;DHT22;47065;52.898;6.992;2022-09-09T11:41:07;21.90;99.90
61201;DHT22;47065;52.898;6.992;2022-09-09T11:46:08;21.80;99.90
61201;DHT22;47065;52.898;6.992;2022-09-09T11:48:38;21.80;99.90
61201;DHT22;47065;52.898;6.992;2022-09-09T11:51:11;21.80;99.90
61201;DHT22;47065;52.898;6.992;2022-09-09T11:56:29;21.90;99.90
61201;DHT22;47065;52.898;6.992;2022-09-09T11:59:20;21.80;99.90
61201;DHT22;47065;52.898;6.992;2022-09-09T12:09:48;22.10;99.90
61201;DHT22;47065;52.898;6.992;2022-09-09T12:12:36;22.10;99.90
61201;DHT22;47065;52.898;6.992;2022-09-09T12:17:50;21.90;99.90
61201;DHT22;47065;52.898;6.992;2022-09-09T12:26:21;21.70;99.90
61201;DHT22;47065;52.898;6.992;2022-09-09T12:29:01;21.80;99.90
61201;DHT22;47065;52.898;6.992;2022-09-09T12:32:00;21.90;99.90
61201;DHT22;47065;52.898;6.992;2022-09-09T12:34:52;21.90;99.50
61201;DHT22;47065;52.898;6.992;2022-09-09T12:39:55;21.70;99.90
61201;DHT22;47065;52.898;6.992;2022-09-09T12:42:22;21.80;99.90
61201;DHT22;47065;52.898;6.992;2022-09-09T12:44:56;21.90;99.90
61201;DHT22;47065;52.898;6.992;2022-09-09T12:47:23;22.00;99.80
61201;DHT22;47065;52.898;6.992;2022-09-09T12:49:50;22.10;98.30
61201;DHT22;47065;52.898;6.992;2022-09-09T12:52:27;22.40;99.60
61201;DHT22;47065;52.898;6.992;2022-09-09T12:54:56;22.70;96.80
61201;DHT22;47065;52.898;6.992;2022-09-09T12:57:23;22.70;98.10
61201;DHT22;47065;52.898;6.992;2022-09-09T12:59:51;22.60;98.70
61201;DHT22;47065;52.898;6.992;2022-09-09T13:02:26;22.50;98.60
61201;DHT22;47065;52.898;6.992;2022-09-09T13:04:52;22.40;98.80
61201;DHT22;47065;52.898;6.992;2022-09-09T13:07:20;22.30;99.30
61201;DHT22;47065;52.898;6.992;2022-09-09T13:09:48;22.20;99.60
61201;DHT22;47065;52.898;6.992;2022-09-09T13:12:21;22.10;99.20
61201;DHT22;47065;52.898;6.992;2022-09-09T13:14:55;21.90;99.90
61201;DHT22;47065;52.898;6.992;2022-09-09T13:17:26;21.50;99.90
61201;DHT22;47065;52.898;6.992;2022-09-09T13:19:57;20.80;99.90
61201;DHT22;47065;52.898;6.992;2022-09-09T13:22:37;20.30;99.90
61201;DHT22;47065;52.898;6.992;2022-09-09T13:25:24;19.80;99.90
61201;DHT22;47065;52.898;6.992;2022-09-09T13:30:30;19.50;99.90
61201;DHT22;47065;52.898;6.992;2022-09-09T13:33:21;19.50;99.90
61201;DHT22;47065;52.898;6.992;2022-09-09T13:35:55;19.50;99.90
61201;DHT22;47065;52.898;6.992;2022-09-09T13:38:21;19.40;99.90
61201;DHT22;47065;52.898;6.992;2022-09-09T13:41:05;19.40;99.90
61201;DHT22;47065;52.898;6.992;2022-09-09T13:43:43;19.30;99.90
61201;DHT22;47065;52.898;6.992;2022-09-09T13:46:36;19.40;99.90
61201;DHT22;47065;52.898;6.992;2022-09-09T13:51:42;19.00;99.90
61201;DHT22;47065;52.898;6.992;2022-09-09T13:54:10;18.80;99.90
61201;DHT22;47065;52.898;6.992;2022-09-09T13:56:37;18.70;99.90
61201;DHT22;47065;52.898;6.992;2022-09-09T13:59:05;18.60;99.90
61201;DHT22;47065;52.898;6.992;2022-09-09T14:01:31;18.50;99.90
61201;DHT22;47065;52.898;6.992;2022-09-09T14:03:58;18.40;99.90
61201;DHT22;47065;52.898;6.992;2022-09-09T14:06:24;18.40;99.90
61201;DHT22;47065;52.898;6.992;2022-09-09T14:08:50;18.40;99.90
61201;DHT22;47065;52.898;6.992;2022-09-09T14:11:17;18.40;99.90
61201;DHT22;47065;52.898;6.992;2022-09-09T14:13:43;18.60;99.90
61201;DHT22;47065;52.898;6.992;2022-09-09T14:16:08;18.70;99.90
61201;DHT22;47065;52.898;6.992;2022-09-09T14:18:35;19.00;99.90
61201;DHT22;47065;52.898;6.992;2022-09-09T14:21:00;19.00;99.90
61201;DHT22;47065;52.898;6.992;2022-09-09T14:23:27;19.10;99.90
61201;DHT22;47065;52.898;6.992;2022-09-09T14:25:53;19.10;99.90
61201;DHT22;47065;52.898;6.992;2022-09-09T14:28:18;19.20;99.90
61201;DHT22;47065;52.898;6.992;2022-09-09T14:30:44;19.30;99.90
61201;DHT22;47065;52.898;6.992;2022-09-09T14:33:12;19.40;99.90
61201;DHT22;47065;52.898;6.992;2022-09-09T14:35:38;19.50;99.90
61201;DHT22;47065;52.898;6.992;2022-09-09T14:38:04;19.60;99.90
61201;DHT22;47065;52.898;6.992;2022-09-09T14:40:30;19.60;99.90
61201;DHT22;47065;52.898;6.992;2022-09-09T14:42:58;19.50;99.90
61201;DHT22;47065;52.898;6.992;2022-09-09T14:45:24;19.30;99.90
61201;DHT22;47065;52.898;6.992;2022-09-09T14:47:51;19.00;99.90
61201;DHT22;47065;52.898;6.992;2022-09-09T14:50:17;18.80;99.90
61201;DHT22;47065;52.898;6.992;2022-09-09T14:52:43;18.60;99.90
61201;DHT22;47065;52.898;6.992;2022-09-09T14:55:09;18.50;99.90
61201;DHT22;47065;52.898;6.992;2022-09-09T14:57:35;18.20;99.90
61201;DHT22;47065;52.898;6.992;2022-09-09T15:00:02;18.10;99.90
61201;DHT22;47065;52.898;6.992;2022-09-09T15:02:28;18.10;99.90
61201;DHT22;47065;52.898;6.992;2022-09-09T15:04:55;18.20;99.90
61201;DHT22;47065;52.898;6.992;2022-09-09T15:07:26;18.10;99.90
61201;DHT22;47065;52.898;6.992;2022-09-09T15:09:54;18.00;99.90
61201;DHT22;47065;52.898;6.992;2022-09-09T15:12:20;17.90;99.90
61201;DHT22;47065;52.898;6.992;2022-09-09T15:14:46;17.90;99.90
61201;DHT22;47065;52.898;6.992;2022-09-09T15:17:12;17.90;99.90
61201;DHT22;47065;52.898;6.992;2022-09-09T15:19:37;17.90;99.90
61201;DHT22;47065;52.898;6.992;2022-09-09T15:22:07;18.00;99.90
61201;DHT22;47065;52.898;6.992;2022-09-09T15:24:33;18.00;99.90
61201;DHT22;47065;52.898;6.992;2022-09-09T15:26:59;18.00;99.90
61201;DHT22;47065;52.898;6.992;2022-09-09T15:29:25;18.10;99.90
61201;DHT22;47065;52.898;6.992;2022-09-09T15:31:51;18.20;99.90
61201;DHT22;47065;52.898;6.992;2022-09-09T15:34:18;18.20;99.90
61201;DHT22;47065;52.898;6.992;2022-09-09T15:36:44;18.20;99.90
61201;DHT22;47065;52.898;6.992;2022-09-09T15:39:13;18.10;99.90
61201;DHT22;47065;52.898;6.992;2022-09-09T15:41:42;18.10;99.90
61201;DHT22;47065;52.898;6.992;2022-09-09T15:44:08;18.10;99.90
61201;DHT22;47065;52.898;6.992;2022-09-09T15:51:28;18.20;99.90
61201;DHT22;47065;52.898;6.992;2022-09-09T15:53:57;18.30;99.90
61201;DHT22;47065;52.898;6.992;2022-09-09T15:56:25;18.30;99.90
61201;DHT22;47065;52.898;6.992;2022-09-09T15:58:52;18.30;99.90
61201;DHT22;47065;52.898;6.992;2022-09-09T16:01:19;18.30;99.90
61201;DHT22;47065;52.898;6.992;2022-09-09T16:03:45;18.40;99.90
61201;DHT22;47065;52.898;6.992;2022-09-09T16:06:12;18.40;99.90
61201;DHT22;47065;52.898;6.992;2022-09-09T16:08:41;18.40;99.90
61201;DHT22;47065;52.898;6.992;2022-09-09T16:13:51;18.50;99.90
61201;DHT22;47065;52.898;6.992;2022-09-09T16:16:20;18.50;99.90
61201;DHT22;47065;52.898;6.992;2022-09-09T16:18:49;18.50;99.90
61201;DHT22;47065;52.898;6.992;2022-09-09T16:21:23;18.50;99.90
61201;DHT22;47065;52.898;6.992;2022-09-09T16:23:51;18.40;99.90
61201;DHT22;47065;52.898;6.992;2022-09-09T16:26:17;18.30;99.90
61201;DHT22;47065;52.898;6.992;2022-09-09T16:28:43;18.30;99.90
61201;DHT22;47065;52.898;6.992;2022-09-09T16:31:11;18.30;99.90
61201;DHT22;47065;52.898;6.992;2022-09-09T16:33:39;18.30;99.90
61201;DHT22;47065;52.898;6.992;2022-09-09T16:36:25;18.40;99.90
61201;DHT22;47065;52.898;6.992;2022-09-09T16:38:55;18.30;99.90
61201;DHT22;47065;52.898;6.992;2022-09-09T16:41:23;18.30;99.90
61201;DHT22;47065;52.898;6.992;2022-09-09T16:43:56;18.20;99.90
61201;DHT22;47065;52.898;6.992;2022-09-09T16:46:22;18.20;99.90
61201;DHT22;47065;52.898;6.992;2022-09-09T16:48:50;18.10;99.90
61201;DHT22;47065;52.898;6.992;2022-09-09T16:51:24;18.10;99.90
61201;DHT22;47065;52.898;6.992;2022-09-09T16:53:50;18.00;99.90
61201;DHT22;47065;52.898;6.992;2022-09-09T16:56:19;18.10;99.90
61201;DHT22;47065;52.898;6.992;2022-09-09T16:58:56;18.10;99.90
61201;DHT22;47065;52.898;6.992;2022-09-09T17:01:23;18.10;99.90
61201;DHT22;47065;52.898;6.992;2022-09-09T17:03:53;18.10;99.90
61201;DHT22;47065;52.898;6.992;2022-09-09T17:06:18;18.00;99.90
61201;DHT22;47065;52.898;6.992;2022-09-09T17:08:45;18.00;99.90
61201;DHT22;47065;52.898;6.992;2022-09-09T17:11:15;18.00;99.90
61201;DHT22;47065;52.898;6.992;2022-09-09T17:13:45;18.00;99.90
61201;DHT22;47065;52.898;6.992;2022-09-09T17:16:13;18.00;99.90
61201;DHT22;47065;52.898;6.992;2022-09-09T17:18:39;18.00;99.90
61201;DHT22;47065;52.898;6.992;2022-09-09T17:21:16;18.10;99.90
61201;DHT22;47065;52.898;6.992;2022-09-09T17:23:43;18.20;99.90
61201;DHT22;47065;52.898;6.992;2022-09-09T17:26:13;18.20;99.90
61201;DHT22;47065;52.898;6.992;2022-09-09T17:28:40;18.10;99.90
61201;DHT22;47065;52.898;6.992;2022-09-09T17:31:07;18.10;99.90
61201;DHT22;47065;52.898;6.992;2022-09-09T17:33:34;18.00;99.90
61201;DHT22;47065;52.898;6.992;2022-09-09T17:36:02;18.00;99.90
61201;DHT22;47065;52.898;6.992;2022-09-09T17:38:32;17.90;99.90
61201;DHT22;47065;52.898;6.992;2022-09-09T17:41:03;17.90;99.90
61201;DHT22;47065;52.898;6.992;2022-09-09T17:43:30;17.80;99.90
61201;DHT22;47065;52.898;6.992;2022-09-09T17:45:55;17.90;99.90
61201;DHT22;47065;52.898;6.992;2022-09-09T17:48:21;17.90;99.90
61201;DHT22;47065;52.898;6.992;2022-09-09T17:50:46;17.90;99.90
61201;DHT22;47065;52.898;6.992;2022-09-09T17:53:12;17.90;99.90